sensor_id;sensor_type;location;lat;lon;timestamp;P1;durP1;ratioP1;P2;durP2;ratioP2
71048;SDS011;58704;53.358;-6.238;2023-03-14T00:00:07;11.60;;;1.90;;
71048;SDS011;58704;53.358;-6.238;2023-03-14T00:02:37;9.98;;;2.17;;
71048;SDS011;58704;53.358;-6.238;2023-03-14T00:05:03;10.90;;;1.83;;
71048;SDS011;58704;53.358;-6.238;2023-03-14T00:07:32;8.23;;;1.80;;
71048;SDS011;58704;53.358;-6.238;2023-03-14T00:10:00;10.77;;;1.73;;
71048;SDS011;58704;53.358;-6.238;2023-03-14T00:12:27;7.00;;;1.77;;
71048;SDS011;58704;53.358;-6.238;2023-03-14T00:14:52;6.00;;;1.77;;
71048;SDS011;58704;53.358;-6.238;2023-03-14T00:17:17;6.17;;;1.80;;
71048;SDS011;58704;53.358;-6.238;2023-03-14T00:19:43;8.80;;;2.03;;
71048;SDS011;58704;53.358;-6.238;2023-03-14T00:22:08;8.10;;;1.77;;
71048;SDS011;58704;53.358;-6.238;2023-03-14T00:24:34;8.57;;;1.80;;
71048;SDS011;58704;53.358;-6.238;2023-03-14T00:26:59;8.87;;;2.07;;
71048;SDS011;58704;53.358;-6.238;2023-03-14T00:29:24;9.50;;;1.83;;
71048;SDS011;58704;53.358;-6.238;2023-03-14T00:31:50;16.63;;;2.53;;
71048;SDS011;58704;53.358;-6.238;2023-03-14T00:34:15;7.27;;;2.03;;
71048;SDS011;58704;53.358;-6.238;2023-03-14T00:36:40;6.70;;;2.37;;
71048;SDS011;58704;53.358;-6.238;2023-03-14T00:39:06;11.00;;;2.47;;
71048;SDS011;58704;53.358;-6.238;2023-03-14T00:41:31;13.67;;;2.23;;
71048;SDS011;58704;53.358;-6.238;2023-03-14T00:43:56;8.60;;;2.53;;
71048;SDS011;58704;53.358;-6.238;2023-03-14T00:46:22;6.90;;;2.22;;
71048;SDS011;58704;53.358;-6.238;2023-03-14T00:48:47;11.97;;;2.53;;
71048;SDS011;58704;53.358;-6.238;2023-03-14T00:51:13;9.33;;;2.13;;
71048;SDS011;58704;53.358;-6.238;2023-03-14T00:53:40;12.20;;;2.25;;
71048;SDS011;58704;53.358;-6.238;2023-03-14T00:56:07;5.93;;;2.13;;
71048;SDS011;58704;53.358;-6.238;2023-03-14T00:58:34;10.23;;;2.05;;
71048;SDS011;58704;53.358;-6.238;2023-03-14T01:01:04;11.75;;;2.15;;
71048;SDS011;58704;53.358;-6.238;2023-03-14T01:03:33;7.80;;;1.67;;
71048;SDS011;58704;53.358;-6.238;2023-03-14T01:08:38;9.00;;;1.97;;
71048;SDS011;58704;53.358;-6.238;2023-03-14T01:11:37;3.92;;;1.48;;
71048;SDS011;58704;53.358;-6.238;2023-03-14T01:13:56;5.77;;;1.77;;
71048;SDS011;58704;53.358;-6.238;2023-03-14T01:16:23;6.65;;;1.85;;
71048;SDS011;58704;53.358;-6.238;2023-03-14T01:18:49;4.65;;;1.63;;
71048;SDS011;58704;53.358;-6.238;2023-03-14T01:21:26;8.83;;;2.10;;
71048;SDS011;58704;53.358;-6.238;2023-03-14T01:23:55;7.88;;;1.90;;
71048;SDS011;58704;53.358;-6.238;2023-03-14T01:26:23;6.35;;;1.60;;
71048;SDS011;58704;53.358;-6.238;2023-03-14T01:28:52;4.55;;;1.63;;
71048;SDS011;58704;53.358;-6.238;2023-03-14T01:31:19;7.20;;;1.30;;
71048;SDS011;58704;53.358;-6.238;2023-03-14T01:33:44;7.38;;;1.50;;
71048;SDS011;58704;53.358;-6.238;2023-03-14T01:36:10;6.13;;;1.43;;
71048;SDS011;58704;53.358;-6.238;2023-03-14T01:38:36;6.18;;;1.52;;
71048;SDS011;58704;53.358;-6.238;2023-03-14T01:41:02;4.35;;;1.27;;
71048;SDS011;58704;53.358;-6.238;2023-03-14T01:43:28;12.97;;;2.00;;
71048;SDS011;58704;53.358;-6.238;2023-03-14T01:48:31;5.25;;;1.38;;
71048;SDS011;58704;53.358;-6.238;2023-03-14T01:50:59;10.23;;;1.80;;
71048;SDS011;58704;53.358;-6.238;2023-03-14T01:53:24;11.00;;;1.55;;
71048;SDS011;58704;53.358;-6.238;2023-03-14T01:55:50;5.67;;;1.30;;
71048;SDS011;58704;53.358;-6.238;2023-03-14T01:58:17;8.73;;;1.70;;
71048;SDS011;58704;53.358;-6.238;2023-03-14T02:00:44;2.77;;;0.97;;
71048;SDS011;58704;53.358;-6.238;2023-03-14T02:03:11;5.88;;;1.10;;
71048;SDS011;58704;53.358;-6.238;2023-03-14T02:05:40;2.33;;;0.82;;
71048;SDS011;58704;53.358;-6.238;2023-03-14T02:08:08;5.30;;;1.35;;
71048;SDS011;58704;53.358;-6.238;2023-03-14T02:10:37;4.60;;;1.00;;
71048;SDS011;58704;53.358;-6.238;2023-03-14T02:13:04;5.05;;;1.10;;
71048;SDS011;58704;53.358;-6.238;2023-03-14T02:15:30;5.43;;;1.45;;
71048;SDS011;58704;53.358;-6.238;2023-03-14T02:17:55;2.57;;;1.00;;
71048;SDS011;58704;53.358;-6.238;2023-03-14T02:22:53;4.10;;;1.20;;
71048;SDS011;58704;53.358;-6.238;2023-03-14T02:28:08;6.40;;;1.90;;
71048;SDS011;58704;53.358;-6.238;2023-03-14T02:30:34;7.15;;;1.70;;
71048;SDS011;58704;53.358;-6.238;2023-03-14T02:35:29;5.35;;;1.85;;
71048;SDS011;58704;53.358;-6.238;2023-03-14T02:40:54;3.10;;;1.27;;
71048;SDS011;58704;53.358;-6.238;2023-03-14T02:43:20;3.43;;;1.63;;
71048;SDS011;58704;53.358;-6.238;2023-03-14T02:45:50;3.10;;;1.30;;
71048;SDS011;58704;53.358;-6.238;2023-03-14T02:51:11;1.30;;;1.13;;
71048;SDS011;58704;53.358;-6.238;2023-03-14T02:53:37;3.22;;;1.40;;
71048;SDS011;58704;53.358;-6.238;2023-03-14T02:56:03;3.40;;;1.27;;
71048;SDS011;58704;53.358;-6.238;2023-03-14T02:58:29;4.53;;;1.33;;
71048;SDS011;58704;53.358;-6.238;2023-03-14T03:00:55;3.00;;;1.35;;
71048;SDS011;58704;53.358;-6.238;2023-03-14T03:03:21;1.57;;;1.37;;
71048;SDS011;58704;53.358;-6.238;2023-03-14T03:05:53;1.63;;;1.10;;
71048;SDS011;58704;53.358;-6.238;2023-03-14T03:08:20;4.80;;;1.40;;
71048;SDS011;58704;53.358;-6.238;2023-03-14T03:10:49;1.52;;;1.30;;
71048;SDS011;58704;53.358;-6.238;2023-03-14T03:13:15;2.70;;;1.23;;
71048;SDS011;58704;53.358;-6.238;2023-03-14T03:15:40;4.03;;;1.30;;
71048;SDS011;58704;53.358;-6.238;2023-03-14T03:18:06;1.57;;;0.90;;
71048;SDS011;58704;53.358;-6.238;2023-03-14T03:20:32;2.25;;;1.10;;
71048;SDS011;58704;53.358;-6.238;2023-03-14T03:22:58;3.10;;;0.90;;
71048;SDS011;58704;53.358;-6.238;2023-03-14T03:25:23;2.75;;;1.10;;
71048;SDS011;58704;53.358;-6.238;2023-03-14T03:27:49;3.13;;;1.10;;
71048;SDS011;58704;53.358;-6.238;2023-03-14T03:30:14;3.20;;;1.00;;
71048;SDS011;58704;53.358;-6.238;2023-03-14T03:32:40;3.83;;;0.95;;
71048;SDS011;58704;53.358;-6.238;2023-03-14T03:35:05;1.77;;;1.03;;
71048;SDS011;58704;53.358;-6.238;2023-03-14T03:37:32;1.60;;;1.00;;
71048;SDS011;58704;53.358;-6.238;2023-03-14T03:39:57;2.37;;;0.83;;
71048;SDS011;58704;53.358;-6.238;2023-03-14T03:42:23;2.83;;;1.03;;
71048;SDS011;58704;53.358;-6.238;2023-03-14T03:44:48;3.30;;;1.23;;
71048;SDS011;58704;53.358;-6.238;2023-03-14T03:47:14;2.25;;;1.20;;
71048;SDS011;58704;53.358;-6.238;2023-03-14T03:49:40;2.43;;;1.00;;
71048;SDS011;58704;53.358;-6.238;2023-03-14T03:52:05;3.73;;;1.30;;
71048;SDS011;58704;53.358;-6.238;2023-03-14T03:54:31;4.10;;;1.20;;
71048;SDS011;58704;53.358;-6.238;2023-03-14T03:56:56;1.83;;;1.10;;
71048;SDS011;58704;53.358;-6.238;2023-03-14T03:59:22;3.47;;;1.10;;
71048;SDS011;58704;53.358;-6.238;2023-03-14T04:01:47;6.13;;;1.23;;
71048;SDS011;58704;53.358;-6.238;2023-03-14T04:04:13;4.65;;;1.00;;
71048;SDS011;58704;53.358;-6.238;2023-03-14T04:06:38;4.33;;;1.17;;
71048;SDS011;58704;53.358;-6.238;2023-03-14T04:09:05;3.05;;;1.10;;
71048;SDS011;58704;53.358;-6.238;2023-03-14T04:11:30;5.60;;;1.50;;
71048;SDS011;58704;53.358;-6.238;2023-03-14T04:13:55;5.57;;;1.40;;
71048;SDS011;58704;53.358;-6.238;2023-03-14T04:16:22;3.03;;;1.33;;
71048;SDS011;58704;53.358;-6.238;2023-03-14T04:18:48;3.70;;;1.20;;
71048;SDS011;58704;53.358;-6.238;2023-03-14T04:21:14;5.63;;;1.08;;
71048;SDS011;58704;53.358;-6.238;2023-03-14T04:23:39;5.17;;;1.60;;
71048;SDS011;58704;53.358;-6.238;2023-03-14T04:26:05;4.23;;;1.60;;
71048;SDS011;58704;53.358;-6.238;2023-03-14T04:28:31;2.53;;;1.10;;
71048;SDS011;58704;53.358;-6.238;2023-03-14T04:30:56;4.93;;;1.13;;
71048;SDS011;58704;53.358;-6.238;2023-03-14T04:33:22;3.63;;;0.87;;
71048;SDS011;58704;53.358;-6.238;2023-03-14T04:35:47;4.00;;;0.97;;
71048;SDS011;58704;53.358;-6.238;2023-03-14T04:38:15;6.63;;;1.20;;
71048;SDS011;58704;53.358;-6.238;2023-03-14T04:40:41;3.28;;;1.50;;
71048;SDS011;58704;53.358;-6.238;2023-03-14T04:43:10;2.30;;;1.13;;
71048;SDS011;58704;53.358;-6.238;2023-03-14T04:45:37;4.80;;;1.45;;
71048;SDS011;58704;53.358;-6.238;2023-03-14T04:48:02;4.45;;;1.00;;
71048;SDS011;58704;53.358;-6.238;2023-03-14T04:50:28;2.20;;;1.07;;
71048;SDS011;58704;53.358;-6.238;2023-03-14T04:52:53;4.97;;;1.07;;
71048;SDS011;58704;53.358;-6.238;2023-03-14T04:55:19;3.95;;;1.00;;
71048;SDS011;58704;53.358;-6.238;2023-03-14T04:57:44;3.43;;;0.87;;
71048;SDS011;58704;53.358;-6.238;2023-03-14T05:00:10;4.10;;;0.90;;
71048;SDS011;58704;53.358;-6.238;2023-03-14T05:02:35;7.85;;;1.00;;
71048;SDS011;58704;53.358;-6.238;2023-03-14T05:05:01;4.77;;;0.90;;
71048;SDS011;58704;53.358;-6.238;2023-03-14T05:07:27;3.72;;;1.00;;
71048;SDS011;58704;53.358;-6.238;2023-03-14T05:09:52;8.50;;;1.00;;
71048;SDS011;58704;53.358;-6.238;2023-03-14T05:12:18;2.20;;;0.60;;
71048;SDS011;58704;53.358;-6.238;2023-03-14T05:14:44;2.83;;;0.80;;
71048;SDS011;58704;53.358;-6.238;2023-03-14T05:17:10;2.20;;;0.80;;
71048;SDS011;58704;53.358;-6.238;2023-03-14T05:19:36;5.75;;;0.95;;
71048;SDS011;58704;53.358;-6.238;2023-03-14T05:22:01;2.90;;;0.77;;
71048;SDS011;58704;53.358;-6.238;2023-03-14T05:24:27;3.00;;;1.00;;
71048;SDS011;58704;53.358;-6.238;2023-03-14T05:26:52;4.53;;;0.70;;
71048;SDS011;58704;53.358;-6.238;2023-03-14T05:29:18;2.77;;;0.80;;
71048;SDS011;58704;53.358;-6.238;2023-03-14T05:31:43;2.65;;;0.80;;
71048;SDS011;58704;53.358;-6.238;2023-03-14T05:34:09;3.00;;;0.90;;
71048;SDS011;58704;53.358;-6.238;2023-03-14T05:36:34;3.97;;;1.10;;
71048;SDS011;58704;53.358;-6.238;2023-03-14T05:38:59;5.00;;;0.93;;
71048;SDS011;58704;53.358;-6.238;2023-03-14T05:41:25;6.40;;;0.80;;
71048;SDS011;58704;53.358;-6.238;2023-03-14T05:43:50;3.15;;;1.17;;
71048;SDS011;58704;53.358;-6.238;2023-03-14T05:46:16;3.67;;;0.73;;
71048;SDS011;58704;53.358;-6.238;2023-03-14T05:48:41;2.90;;;1.00;;
71048;SDS011;58704;53.358;-6.238;2023-03-14T05:51:06;4.33;;;1.13;;
71048;SDS011;58704;53.358;-6.238;2023-03-14T05:53:32;4.53;;;1.00;;
71048;SDS011;58704;53.358;-6.238;2023-03-14T05:55:57;3.83;;;1.63;;
71048;SDS011;58704;53.358;-6.238;2023-03-14T05:58:23;3.53;;;0.70;;
71048;SDS011;58704;53.358;-6.238;2023-03-14T06:00:49;4.80;;;1.40;;
71048;SDS011;58704;53.358;-6.238;2023-03-14T06:03:15;2.38;;;1.10;;
71048;SDS011;58704;53.358;-6.238;2023-03-14T06:05:40;3.93;;;0.90;;
71048;SDS011;58704;53.358;-6.238;2023-03-14T06:08:05;2.50;;;1.20;;
71048;SDS011;58704;53.358;-6.238;2023-03-14T06:10:31;4.97;;;0.90;;
71048;SDS011;58704;53.358;-6.238;2023-03-14T06:12:56;1.20;;;0.90;;
71048;SDS011;58704;53.358;-6.238;2023-03-14T06:15:22;2.00;;;1.50;;
71048;SDS011;58704;53.358;-6.238;2023-03-14T06:17:47;4.13;;;1.33;;
71048;SDS011;58704;53.358;-6.238;2023-03-14T06:20:13;6.03;;;0.98;;
71048;SDS011;58704;53.358;-6.238;2023-03-14T06:22:38;3.53;;;1.10;;
71048;SDS011;58704;53.358;-6.238;2023-03-14T06:25:05;4.50;;;1.20;;
71048;SDS011;58704;53.358;-6.238;2023-03-14T06:27:31;5.00;;;1.10;;
71048;SDS011;58704;53.358;-6.238;2023-03-14T06:29:56;5.43;;;1.30;;
71048;SDS011;58704;53.358;-6.238;2023-03-14T06:32:22;1.63;;;0.70;;
71048;SDS011;58704;53.358;-6.238;2023-03-14T06:34:47;2.77;;;0.90;;
71048;SDS011;58704;53.358;-6.238;2023-03-14T06:37:13;3.70;;;1.17;;
71048;SDS011;58704;53.358;-6.238;2023-03-14T06:39:39;3.83;;;1.10;;
71048;SDS011;58704;53.358;-6.238;2023-03-14T06:42:05;2.35;;;0.93;;
71048;SDS011;58704;53.358;-6.238;2023-03-14T06:44:30;4.30;;;1.07;;
71048;SDS011;58704;53.358;-6.238;2023-03-14T06:46:56;4.03;;;1.00;;
71048;SDS011;58704;53.358;-6.238;2023-03-14T06:49:21;3.30;;;1.00;;
71048;SDS011;58704;53.358;-6.238;2023-03-14T06:51:47;1.10;;;0.90;;
71048;SDS011;58704;53.358;-6.238;2023-03-14T06:54:12;2.73;;;1.30;;
71048;SDS011;58704;53.358;-6.238;2023-03-14T06:56:38;1.83;;;0.90;;
71048;SDS011;58704;53.358;-6.238;2023-03-14T06:59:03;3.10;;;0.80;;
71048;SDS011;58704;53.358;-6.238;2023-03-14T07:01:29;4.00;;;1.20;;
71048;SDS011;58704;53.358;-6.238;2023-03-14T07:03:55;3.47;;;1.27;;
71048;SDS011;58704;53.358;-6.238;2023-03-14T07:06:21;3.87;;;1.60;;
71048;SDS011;58704;53.358;-6.238;2023-03-14T07:08:46;4.10;;;1.10;;
71048;SDS011;58704;53.358;-6.238;2023-03-14T07:11:12;3.00;;;1.10;;
71048;SDS011;58704;53.358;-6.238;2023-03-14T07:13:38;3.53;;;1.27;;
71048;SDS011;58704;53.358;-6.238;2023-03-14T07:16:03;5.13;;;1.20;;
71048;SDS011;58704;53.358;-6.238;2023-03-14T07:18:29;7.55;;;1.45;;
71048;SDS011;58704;53.358;-6.238;2023-03-14T07:20:55;3.60;;;1.00;;
71048;SDS011;58704;53.358;-6.238;2023-03-14T07:23:20;4.37;;;1.10;;
71048;SDS011;58704;53.358;-6.238;2023-03-14T07:25:45;4.23;;;1.17;;
71048;SDS011;58704;53.358;-6.238;2023-03-14T07:28:11;6.20;;;1.35;;
71048;SDS011;58704;53.358;-6.238;2023-03-14T07:30:36;2.17;;;1.13;;
71048;SDS011;58704;53.358;-6.238;2023-03-14T07:33:02;5.30;;;0.87;;
71048;SDS011;58704;53.358;-6.238;2023-03-14T07:35:27;3.23;;;0.90;;
71048;SDS011;58704;53.358;-6.238;2023-03-14T07:37:52;4.17;;;1.40;;
71048;SDS011;58704;53.358;-6.238;2023-03-14T07:40:18;4.70;;;1.00;;
71048;SDS011;58704;53.358;-6.238;2023-03-14T07:42:43;9.03;;;1.50;;
71048;SDS011;58704;53.358;-6.238;2023-03-14T07:45:09;3.57;;;1.47;;
71048;SDS011;58704;53.358;-6.238;2023-03-14T07:47:35;4.07;;;1.27;;
71048;SDS011;58704;53.358;-6.238;2023-03-14T07:50:02;2.95;;;1.27;;
71048;SDS011;58704;53.358;-6.238;2023-03-14T07:52:29;4.18;;;1.50;;
71048;SDS011;58704;53.358;-6.238;2023-03-14T07:54:54;8.13;;;1.70;;
71048;SDS011;58704;53.358;-6.238;2023-03-14T07:57:20;7.50;;;1.70;;
71048;SDS011;58704;53.358;-6.238;2023-03-14T07:59:45;9.23;;;1.80;;
71048;SDS011;58704;53.358;-6.238;2023-03-14T08:02:11;8.10;;;1.70;;
71048;SDS011;58704;53.358;-6.238;2023-03-14T08:04:37;5.30;;;1.17;;
71048;SDS011;58704;53.358;-6.238;2023-03-14T08:07:03;4.65;;;1.33;;
71048;SDS011;58704;53.358;-6.238;2023-03-14T08:09:29;3.63;;;0.90;;
71048;SDS011;58704;53.358;-6.238;2023-03-14T08:11:54;5.73;;;1.17;;
71048;SDS011;58704;53.358;-6.238;2023-03-14T08:14:19;3.75;;;1.23;;
71048;SDS011;58704;53.358;-6.238;2023-03-14T08:16:45;5.00;;;1.40;;
71048;SDS011;58704;53.358;-6.238;2023-03-14T08:19:10;10.80;;;1.80;;
71048;SDS011;58704;53.358;-6.238;2023-03-14T08:21:36;2.50;;;1.10;;
71048;SDS011;58704;53.358;-6.238;2023-03-14T08:24:01;3.88;;;1.35;;
71048;SDS011;58704;53.358;-6.238;2023-03-14T08:26:26;4.77;;;1.33;;
71048;SDS011;58704;53.358;-6.238;2023-03-14T08:28:52;4.73;;;1.47;;
71048;SDS011;58704;53.358;-6.238;2023-03-14T08:31:17;6.33;;;1.53;;
71048;SDS011;58704;53.358;-6.238;2023-03-14T08:33:43;5.80;;;1.37;;
71048;SDS011;58704;53.358;-6.238;2023-03-14T08:36:09;8.50;;;1.52;;
71048;SDS011;58704;53.358;-6.238;2023-03-14T08:38:34;5.93;;;1.30;;
71048;SDS011;58704;53.358;-6.238;2023-03-14T08:41:00;8.40;;;1.80;;
71048;SDS011;58704;53.358;-6.238;2023-03-14T08:43:27;4.55;;;1.27;;
71048;SDS011;58704;53.358;-6.238;2023-03-14T08:45:57;8.00;;;1.40;;
71048;SDS011;58704;53.358;-6.238;2023-03-14T08:48:23;5.10;;;1.40;;
71048;SDS011;58704;53.358;-6.238;2023-03-14T08:50:49;8.93;;;1.50;;
71048;SDS011;58704;53.358;-6.238;2023-03-14T08:53:14;5.93;;;1.37;;
71048;SDS011;58704;53.358;-6.238;2023-03-14T08:55:39;6.17;;;2.30;;
71048;SDS011;58704;53.358;-6.238;2023-03-14T08:58:05;6.07;;;1.50;;
71048;SDS011;58704;53.358;-6.238;2023-03-14T09:00:30;5.28;;;1.25;;
71048;SDS011;58704;53.358;-6.238;2023-03-14T09:02:56;4.60;;;1.30;;
71048;SDS011;58704;53.358;-6.238;2023-03-14T09:05:21;9.30;;;1.20;;
71048;SDS011;58704;53.358;-6.238;2023-03-14T09:07:46;7.63;;;1.43;;
71048;SDS011;58704;53.358;-6.238;2023-03-14T09:10:12;5.47;;;1.70;;
71048;SDS011;58704;53.358;-6.238;2023-03-14T09:12:37;6.78;;;1.38;;
71048;SDS011;58704;53.358;-6.238;2023-03-14T09:15:03;7.30;;;1.63;;
71048;SDS011;58704;53.358;-6.238;2023-03-14T09:17:29;3.72;;;1.30;;
71048;SDS011;58704;53.358;-6.238;2023-03-14T09:19:54;5.30;;;1.67;;
71048;SDS011;58704;53.358;-6.238;2023-03-14T09:22:19;9.13;;;1.73;;
71048;SDS011;58704;53.358;-6.238;2023-03-14T09:24:45;5.20;;;1.30;;
71048;SDS011;58704;53.358;-6.238;2023-03-14T09:27:11;3.87;;;1.57;;
71048;SDS011;58704;53.358;-6.238;2023-03-14T09:29:37;5.75;;;1.48;;
71048;SDS011;58704;53.358;-6.238;2023-03-14T09:32:02;10.27;;;1.60;;
71048;SDS011;58704;53.358;-6.238;2023-03-14T09:34:28;4.57;;;1.58;;
71048;SDS011;58704;53.358;-6.238;2023-03-14T09:36:54;6.47;;;1.40;;
71048;SDS011;58704;53.358;-6.238;2023-03-14T09:39:19;8.60;;;1.83;;
71048;SDS011;58704;53.358;-6.238;2023-03-14T09:41:46;5.10;;;1.83;;
71048;SDS011;58704;53.358;-6.238;2023-03-14T09:44:14;9.15;;;1.90;;
71048;SDS011;58704;53.358;-6.238;2023-03-14T09:46:40;8.35;;;1.55;;
71048;SDS011;58704;53.358;-6.238;2023-03-14T09:49:14;9.90;;;2.00;;
71048;SDS011;58704;53.358;-6.238;2023-03-14T09:51:46;8.60;;;1.92;;
71048;SDS011;58704;53.358;-6.238;2023-03-14T09:54:29;9.33;;;1.87;;
71048;SDS011;58704;53.358;-6.238;2023-03-14T09:57:03;7.03;;;1.35;;
71048;SDS011;58704;53.358;-6.238;2023-03-14T09:59:29;7.15;;;2.75;;
71048;SDS011;58704;53.358;-6.238;2023-03-14T10:01:57;7.95;;;1.58;;
71048;SDS011;58704;53.358;-6.238;2023-03-14T10:04:25;6.33;;;1.50;;
71048;SDS011;58704;53.358;-6.238;2023-03-14T10:06:50;7.28;;;1.63;;
71048;SDS011;58704;53.358;-6.238;2023-03-14T10:09:20;8.20;;;1.60;;
71048;SDS011;58704;53.358;-6.238;2023-03-14T10:11:56;7.10;;;1.38;;
71048;SDS011;58704;53.358;-6.238;2023-03-14T10:14:32;9.03;;;2.03;;
71048;SDS011;58704;53.358;-6.238;2023-03-14T10:17:05;7.63;;;1.83;;
71048;SDS011;58704;53.358;-6.238;2023-03-14T10:19:32;5.40;;;1.52;;
71048;SDS011;58704;53.358;-6.238;2023-03-14T10:21:57;6.07;;;1.70;;
71048;SDS011;58704;53.358;-6.238;2023-03-14T10:26:54;9.97;;;1.80;;
71048;SDS011;58704;53.358;-6.238;2023-03-14T10:29:23;6.78;;;2.05;;
71048;SDS011;58704;53.358;-6.238;2023-03-14T10:34:24;8.07;;;1.70;;
71048;SDS011;58704;53.358;-6.238;2023-03-14T10:37:07;10.32;;;1.95;;
71048;SDS011;58704;53.358;-6.238;2023-03-14T10:39:45;5.95;;;1.70;;
71048;SDS011;58704;53.358;-6.238;2023-03-14T10:42:14;8.32;;;1.58;;
71048;SDS011;58704;53.358;-6.238;2023-03-14T10:45:00;8.93;;;2.00;;
71048;SDS011;58704;53.358;-6.238;2023-03-14T10:47:26;7.70;;;2.15;;
71048;SDS011;58704;53.358;-6.238;2023-03-14T10:49:53;8.52;;;1.77;;
71048;SDS011;58704;53.358;-6.238;2023-03-14T10:52:28;4.25;;;1.30;;
71048;SDS011;58704;53.358;-6.238;2023-03-14T10:55:01;4.95;;;1.48;;
71048;SDS011;58704;53.358;-6.238;2023-03-14T10:57:38;8.70;;;1.70;;
71048;SDS011;58704;53.358;-6.238;2023-03-14T11:00:05;8.40;;;1.70;;
71048;SDS011;58704;53.358;-6.238;2023-03-14T11:02:47;8.25;;;1.55;;
71048;SDS011;58704;53.358;-6.238;2023-03-14T11:05:27;6.75;;;1.70;;
71048;SDS011;58704;53.358;-6.238;2023-03-14T11:07:57;5.38;;;1.50;;
71048;SDS011;58704;53.358;-6.238;2023-03-14T11:10:33;7.77;;;1.40;;
71048;SDS011;58704;53.358;-6.238;2023-03-14T11:21:01;5.25;;;1.60;;
71048;SDS011;58704;53.358;-6.238;2023-03-14T11:26:32;8.23;;;1.20;;
71048;SDS011;58704;53.358;-6.238;2023-03-14T11:29:10;9.20;;;1.48;;
71048;SDS011;58704;53.358;-6.238;2023-03-14T11:31:38;5.18;;;1.38;;
71048;SDS011;58704;53.358;-6.238;2023-03-14T11:36:44;5.27;;;1.30;;
71048;SDS011;58704;53.358;-6.238;2023-03-14T11:39:14;5.18;;;1.27;;
71048;SDS011;58704;53.358;-6.238;2023-03-14T11:41:42;3.88;;;1.40;;
71048;SDS011;58704;53.358;-6.238;2023-03-14T11:44:19;3.97;;;1.05;;
71048;SDS011;58704;53.358;-6.238;2023-03-14T11:47:07;6.68;;;1.50;;
71048;SDS011;58704;53.358;-6.238;2023-03-14T11:50:05;5.43;;;1.40;;
71048;SDS011;58704;53.358;-6.238;2023-03-14T11:52:41;7.25;;;1.20;;
71048;SDS011;58704;53.358;-6.238;2023-03-14T11:55:37;4.72;;;1.20;;
71048;SDS011;58704;53.358;-6.238;2023-03-14T12:00:53;3.67;;;1.48;;
71048;SDS011;58704;53.358;-6.238;2023-03-14T12:11:14;3.08;;;1.10;;
71048;SDS011;58704;53.358;-6.238;2023-03-14T12:13:53;4.25;;;1.08;;
71048;SDS011;58704;53.358;-6.238;2023-03-14T12:18:45;4.45;;;1.00;;
71048;SDS011;58704;53.358;-6.238;2023-03-14T12:21:11;4.13;;;1.10;;
71048;SDS011;58704;53.358;-6.238;2023-03-14T12:23:50;7.47;;;1.35;;
71048;SDS011;58704;53.358;-6.238;2023-03-14T12:26:18;3.78;;;1.45;;
71048;SDS011;58704;53.358;-6.238;2023-03-14T12:29:28;2.47;;;0.90;;
71048;SDS011;58704;53.358;-6.238;2023-03-14T12:34:41;2.72;;;1.05;;
71048;SDS011;58704;53.358;-6.238;2023-03-14T12:47:41;3.95;;;1.00;;
71048;SDS011;58704;53.358;-6.238;2023-03-14T12:50:14;3.07;;;1.10;;
71048;SDS011;58704;53.358;-6.238;2023-03-14T12:58:17;1.95;;;1.20;;
71048;SDS011;58704;53.358;-6.238;2023-03-14T13:01:01;4.70;;;1.55;;
71048;SDS011;58704;53.358;-6.238;2023-03-14T13:03:39;5.43;;;1.50;;
71048;SDS011;58704;53.358;-6.238;2023-03-14T13:06:09;6.45;;;1.50;;
71048;SDS011;58704;53.358;-6.238;2023-03-14T13:08:43;4.35;;;1.02;;
71048;SDS011;58704;53.358;-6.238;2023-03-14T13:11:16;1.25;;;0.75;;
71048;SDS011;58704;53.358;-6.238;2023-03-14T13:13:52;1.70;;;0.95;;
71048;SDS011;58704;53.358;-6.238;2023-03-14T13:16:21;2.97;;;1.10;;
71048;SDS011;58704;53.358;-6.238;2023-03-14T13:18:48;2.53;;;1.08;;
71048;SDS011;58704;53.358;-6.238;2023-03-14T13:21:15;1.40;;;1.10;;
71048;SDS011;58704;53.358;-6.238;2023-03-14T13:26:21;2.15;;;1.05;;
71048;SDS011;58704;53.358;-6.238;2023-03-14T13:28:48;3.08;;;0.88;;
71048;SDS011;58704;53.358;-6.238;2023-03-14T13:31:19;2.63;;;1.20;;
71048;SDS011;58704;53.358;-6.238;2023-03-14T13:33:55;2.10;;;0.98;;
71048;SDS011;58704;53.358;-6.238;2023-03-14T13:36:30;7.03;;;1.30;;
71048;SDS011;58704;53.358;-6.238;2023-03-14T13:38:59;2.17;;;1.10;;
71048;SDS011;58704;53.358;-6.238;2023-03-14T13:41:26;2.78;;;1.30;;
71048;SDS011;58704;53.358;-6.238;2023-03-14T13:43:52;1.40;;;1.00;;
71048;SDS011;58704;53.358;-6.238;2023-03-14T13:46:23;4.97;;;1.17;;
71048;SDS011;58704;53.358;-6.238;2023-03-14T13:51:20;2.40;;;1.00;;
71048;SDS011;58704;53.358;-6.238;2023-03-14T13:53:51;1.75;;;1.30;;
71048;SDS011;58704;53.358;-6.238;2023-03-14T13:56:18;2.83;;;1.20;;
71048;SDS011;58704;53.358;-6.238;2023-03-14T13:58:46;2.72;;;1.30;;
71048;SDS011;58704;53.358;-6.238;2023-03-14T14:01:13;1.80;;;0.90;;
71048;SDS011;58704;53.358;-6.238;2023-03-14T14:03:41;3.10;;;1.30;;
71048;SDS011;58704;53.358;-6.238;2023-03-14T14:09:01;7.22;;;1.48;;
71048;SDS011;58704;53.358;-6.238;2023-03-14T14:13:57;1.90;;;1.25;;
71048;SDS011;58704;53.358;-6.238;2023-03-14T14:16:24;4.07;;;1.45;;
71048;SDS011;58704;53.358;-6.238;2023-03-14T14:18:51;1.97;;;1.63;;
71048;SDS011;58704;53.358;-6.238;2023-03-14T14:21:17;1.35;;;1.08;;
71048;SDS011;58704;53.358;-6.238;2023-03-14T14:23:43;1.87;;;1.27;;
71048;SDS011;58704;53.358;-6.238;2023-03-14T14:26:13;3.80;;;1.15;;
71048;SDS011;58704;53.358;-6.238;2023-03-14T14:28:40;6.77;;;1.90;;
71048;SDS011;58704;53.358;-6.238;2023-03-14T14:36:31;2.00;;;1.10;;
71048;SDS011;58704;53.358;-6.238;2023-03-14T14:39:03;1.35;;;1.25;;
71048;SDS011;58704;53.358;-6.238;2023-03-14T14:41:31;1.70;;;1.20;;
71048;SDS011;58704;53.358;-6.238;2023-03-14T14:43:59;1.60;;;1.40;;
71048;SDS011;58704;53.358;-6.238;2023-03-14T14:46:26;3.90;;;1.63;;
71048;SDS011;58704;53.358;-6.238;2023-03-14T14:48:55;3.80;;;1.33;;
71048;SDS011;58704;53.358;-6.238;2023-03-14T14:51:23;2.65;;;1.67;;
71048;SDS011;58704;53.358;-6.238;2023-03-14T14:53:58;2.58;;;1.73;;
71048;SDS011;58704;53.358;-6.238;2023-03-14T14:56:27;5.07;;;1.98;;
71048;SDS011;58704;53.358;-6.238;2023-03-14T14:59:00;3.42;;;1.90;;
71048;SDS011;58704;53.358;-6.238;2023-03-14T15:01:32;3.57;;;1.50;;
71048;SDS011;58704;53.358;-6.238;2023-03-14T15:04:04;3.25;;;2.03;;
71048;SDS011;58704;53.358;-6.238;2023-03-14T15:06:35;2.35;;;1.55;;
71048;SDS011;58704;53.358;-6.238;2023-03-14T15:09:02;6.10;;;0.90;;
71048;SDS011;58704;53.358;-6.238;2023-03-14T15:11:28;0.87;;;0.70;;
71048;SDS011;58704;53.358;-6.238;2023-03-14T15:13:53;1.40;;;0.70;;
71048;SDS011;58704;53.358;-6.238;2023-03-14T15:16:20;1.42;;;0.63;;
71048;SDS011;58704;53.358;-6.238;2023-03-14T15:18:49;1.33;;;0.85;;
71048;SDS011;58704;53.358;-6.238;2023-03-14T15:21:19;1.85;;;0.90;;
71048;SDS011;58704;53.358;-6.238;2023-03-14T15:23:44;1.10;;;0.60;;
71048;SDS011;58704;53.358;-6.238;2023-03-14T15:26:11;2.53;;;1.10;;
71048;SDS011;58704;53.358;-6.238;2023-03-14T15:28:39;3.03;;;0.77;;
71048;SDS011;58704;53.358;-6.238;2023-03-14T15:31:05;1.02;;;0.70;;
71048;SDS011;58704;53.358;-6.238;2023-03-14T15:33:30;0.93;;;0.80;;
71048;SDS011;58704;53.358;-6.238;2023-03-14T15:35:55;1.03;;;0.80;;
71048;SDS011;58704;53.358;-6.238;2023-03-14T15:38:22;2.22;;;1.38;;
71048;SDS011;58704;53.358;-6.238;2023-03-14T15:40:49;1.75;;;1.13;;
71048;SDS011;58704;53.358;-6.238;2023-03-14T15:43:15;2.03;;;1.10;;
71048;SDS011;58704;53.358;-6.238;2023-03-14T15:45:41;2.80;;;1.10;;
71048;SDS011;58704;53.358;-6.238;2023-03-14T15:48:08;3.73;;;2.30;;
71048;SDS011;58704;53.358;-6.238;2023-03-14T15:50:38;2.42;;;1.90;;
71048;SDS011;58704;53.358;-6.238;2023-03-14T15:53:04;5.03;;;4.53;;
71048;SDS011;58704;53.358;-6.238;2023-03-14T15:55:29;4.23;;;3.23;;
71048;SDS011;58704;53.358;-6.238;2023-03-14T15:57:54;6.93;;;4.17;;
71048;SDS011;58704;53.358;-6.238;2023-03-14T16:00:20;2.40;;;2.07;;